createdAt,value
2018-03-15T00:02:17.860Z,28.53
2018-03-15T00:04:45.292Z,27.77
2018-03-15T00:07:13.513Z,31.83
2018-03-15T00:09:40.980Z,28.47
2018-03-15T00:12:08.429Z,27.70
2018-03-15T00:14:35.864Z,26.93
2018-03-15T00:17:03.362Z,32.03
2018-03-15T00:19:30.773Z,27.83
2018-03-15T00:21:58.196Z,28.67
2018-03-15T00:24:26.425Z,30.37
2018-03-15T00:26:53.977Z,26.60
2018-03-15T00:29:21.412Z,33.30
2018-03-15T00:31:48.848Z,24.93
2018-03-15T00:34:17.049Z,27.70
2018-03-15T00:36:44.472Z,29.23
2018-03-15T00:39:11.908Z,28.27
2018-03-15T00:41:39.352Z,32.80
2018-03-15T00:44:06.790Z,26.20
2018-03-15T00:46:34.252Z,26.27
2018-03-15T00:49:01.709Z,27.20
2018-03-15T00:51:29.136Z,26.03
2018-03-15T00:53:57.344Z,30.37
2018-03-15T00:56:24.779Z,32.37
2018-03-15T00:58:52.251Z,28.03
2018-03-15T01:01:19.736Z,29.27
2018-03-15T01:03:47.288Z,27.60
2018-03-15T01:06:14.725Z,26.53
2018-03-15T01:08:42.178Z,29.80
2018-03-15T01:11:09.596Z,30.17
2018-03-15T01:13:37.824Z,29.83
2018-03-15T01:16:05.268Z,31.40
2018-03-15T01:18:32.704Z,31.30
2018-03-15T01:21:01.005Z,30.90
2018-03-15T01:23:28.468Z,32.00
2018-03-15T01:25:55.920Z,29.30
2018-03-15T01:28:23.392Z,29.50
2018-03-15T01:30:50.834Z,32.00
2018-03-15T01:33:18.261Z,32.03
2018-03-15T01:35:46.485Z,28.53
2018-03-15T01:38:13.925Z,31.13
2018-03-15T01:40:41.351Z,31.20
2018-03-15T01:43:09.564Z,31.23
2018-03-15T01:45:37.024Z,29.30
2018-03-15T01:48:04.473Z,34.07
2018-03-15T01:50:31.928Z,34.17
2018-03-15T01:52:59.389Z,30.60
2018-03-15T01:55:26.848Z,33.20
2018-03-15T01:57:54.329Z,30.87
2018-03-15T02:00:21.765Z,29.90
2018-03-15T02:02:49.194Z,29.87
2018-03-15T02:05:16.679Z,31.40
2018-03-15T02:07:44.125Z,32.87
2018-03-15T02:10:11.600Z,32.73
2018-03-15T02:12:39.063Z,30.93
2018-03-15T02:15:06.496Z,28.47
2018-03-15T02:17:33.936Z,31.83
2018-03-15T02:20:01.420Z,32.13
2018-03-15T02:22:28.866Z,34.47
2018-03-15T02:24:56.328Z,35.47
2018-03-15T02:27:23.786Z,26.97
2018-03-15T02:29:51.232Z,29.33
2018-03-15T02:32:18.708Z,27.93
2018-03-15T02:34:46.135Z,32.67
2018-03-15T02:37:13.610Z,34.80
2018-03-15T02:39:41.077Z,31.30
2018-03-15T02:42:08.507Z,29.90
2018-03-15T02:44:35.953Z,32.03
2018-03-15T02:47:04.261Z,29.43
2018-03-15T02:49:31.720Z,31.23
2018-03-15T02:51:59.174Z,30.50
2018-03-15T02:54:26.586Z,29.53
2018-03-15T02:56:54.786Z,29.73
2018-03-15T02:59:22.280Z,36.80
2018-03-15T03:01:49.714Z,31.77
2018-03-15T03:04:17.145Z,26.37
2018-03-15T03:06:45.389Z,29.17
2018-03-15T03:09:13.033Z,31.30
2018-03-15T03:11:40.508Z,28.97
2018-03-15T03:14:07.954Z,30.27
2018-03-15T03:16:35.384Z,34.50
2018-03-15T03:19:03.732Z,30.37
2018-03-15T03:21:31.945Z,30.77
2018-03-15T03:23:59.396Z,32.13
2018-03-15T03:26:26.868Z,31.37
2018-03-15T03:28:54.423Z,32.10
2018-03-15T03:31:21.879Z,30.13
2018-03-15T03:33:49.312Z,30.67
2018-03-15T03:36:16.751Z,31.33
2018-03-15T03:38:44.205Z,30.73
2018-03-15T03:41:12.549Z,31.23
2018-03-15T03:43:39.990Z,31.20
2018-03-15T03:46:08.456Z,29.90
2018-03-15T03:48:35.992Z,31.23
2018-03-15T03:51:03.524Z,31.47
2018-03-15T03:53:30.960Z,29.90
2018-03-15T03:55:58.385Z,28.90
2018-03-15T03:58:25.816Z,29.07
2018-03-15T04:00:53.347Z,31.23
2018-03-15T04:03:20.830Z,27.23
2018-03-15T04:05:48.283Z,30.17
2018-03-15T04:08:15.707Z,28.67
2018-03-15T04:10:43.184Z,23.90
2018-03-15T04:13:10.633Z,30.40
2018-03-15T04:15:38.057Z,31.97
2018-03-15T04:18:06.313Z,25.07
2018-03-15T04:20:33.743Z,30.90
2018-03-15T04:23:01.190Z,31.47
2018-03-15T04:25:28.623Z,32.80
2018-03-15T04:27:56.101Z,31.33
2018-03-15T04:30:23.567Z,35.97
2018-03-15T04:32:50.997Z,28.93
2018-03-15T04:35:18.462Z,28.13
2018-03-15T04:37:45.894Z,29.97
2018-03-15T04:40:14.220Z,26.47
2018-03-15T04:42:41.648Z,29.20
2018-03-15T04:45:09.116Z,30.13
2018-03-15T04:47:36.645Z,27.20
2018-03-15T04:50:04.029Z,25.37
2018-03-15T04:52:31.488Z,32.57
2018-03-15T04:54:58.921Z,30.07
2018-03-15T04:57:26.500Z,27.53
2018-03-15T04:59:53.915Z,28.60
2018-03-15T05:02:22.113Z,30.93
2018-03-15T05:04:49.565Z,25.53
2018-03-15T05:07:17.000Z,31.87
2018-03-15T05:09:44.453Z,30.50
2018-03-15T05:12:12.732Z,28.90
2018-03-15T05:14:40.168Z,32.13
2018-03-15T05:17:08.360Z,24.60
2018-03-15T05:19:35.870Z,28.60
2018-03-15T05:22:03.320Z,31.40
2018-03-15T05:24:30.769Z,30.07
2018-03-15T05:26:58.217Z,26.37
2018-03-15T05:29:25.654Z,26.20
2018-03-15T05:31:53.955Z,29.80
2018-03-15T05:34:21.400Z,31.27
2018-03-15T05:36:48.856Z,30.03
2018-03-15T05:39:16.270Z,32.80
2018-03-15T05:41:44.613Z,30.53
2018-03-15T05:44:12.150Z,26.17
2018-03-15T05:46:39.620Z,29.73
2018-03-15T05:49:07.072Z,27.40
2018-03-15T05:51:34.548Z,26.63
2018-03-15T05:54:01.984Z,28.07
2018-03-15T05:56:29.444Z,23.07
2018-03-15T05:58:56.900Z,29.00
2018-03-15T06:01:24.332Z,32.90
2018-03-15T06:03:51.839Z,28.57
2018-03-15T06:06:19.376Z,26.67
2018-03-15T06:08:46.808Z,29.43
2018-03-15T06:11:14.256Z,24.73
2018-03-15T06:13:42.445Z,28.83
2018-03-15T06:16:10.124Z,28.90
2018-03-15T06:18:37.592Z,28.37
2018-03-15T06:21:05.034Z,27.00
2018-03-15T06:23:32.505Z,24.80
2018-03-15T06:26:00.057Z,28.83
2018-03-15T06:28:28.340Z,27.17
2018-03-15T06:30:55.768Z,27.07
2018-03-15T06:33:23.257Z,25.60
2018-03-15T06:35:50.704Z,29.73
2018-03-15T06:38:18.164Z,29.50
2018-03-15T06:40:45.603Z,26.33
2018-03-15T06:43:13.024Z,23.53
2018-03-15T06:45:41.243Z,24.57
2018-03-15T06:48:08.720Z,25.87
2018-03-15T06:50:36.173Z,24.93
2018-03-15T06:53:03.613Z,23.40
2018-03-15T06:55:31.097Z,24.40
2018-03-15T06:57:58.502Z,23.97
2018-03-15T07:00:25.927Z,22.37
2018-03-15T07:02:53.415Z,28.57
2018-03-15T07:05:20.860Z,24.30
2018-03-15T07:07:48.322Z,22.57
2018-03-15T07:10:15.760Z,23.73
2018-03-15T07:12:43.248Z,20.43
2018-03-15T07:15:10.696Z,23.37
2018-03-15T07:17:38.144Z,26.63
2018-03-15T07:20:05.609Z,22.77
2018-03-15T07:22:33.144Z,24.03
2018-03-15T07:25:00.631Z,23.93
2018-03-15T07:27:28.179Z,20.40
2018-03-15T07:29:55.593Z,22.00
2018-03-15T07:32:23.797Z,24.60
2018-03-15T07:34:51.257Z,23.37
2018-03-15T07:37:18.688Z,20.17
2018-03-15T07:39:46.169Z,23.23
2018-03-15T07:42:13.636Z,22.60
2018-03-15T07:44:41.065Z,16.73
2018-03-15T07:47:08.546Z,22.87
2018-03-15T07:49:36.002Z,23.90
2018-03-15T07:52:03.462Z,20.33
2018-03-15T07:54:30.908Z,22.97
2018-03-15T07:56:58.367Z,20.50
2018-03-15T07:59:25.810Z,18.17
2018-03-15T08:01:53.988Z,14.13
2018-03-15T08:04:21.462Z,24.30
2018-03-15T08:06:48.910Z,24.90
2018-03-15T08:09:16.375Z,20.77
2018-03-15T08:11:43.840Z,22.73
2018-03-15T08:14:11.274Z,21.03
2018-03-15T08:16:38.749Z,22.23
2018-03-15T08:19:06.201Z,22.10
2018-03-15T08:21:33.649Z,21.03
2018-03-15T08:24:01.085Z,19.97
2018-03-15T08:26:29.293Z,19.10
2018-03-15T08:28:56.767Z,20.27
2018-03-15T08:31:24.312Z,17.40
2018-03-15T08:33:51.744Z,21.30
2018-03-15T08:36:19.178Z,21.13
2018-03-15T08:38:46.636Z,21.57
2018-03-15T08:41:14.869Z,19.00
2018-03-15T08:43:42.401Z,20.87
2018-03-15T08:46:09.866Z,20.03
2018-03-15T08:48:37.319Z,20.60
2018-03-15T08:51:04.753Z,21.17
2018-03-15T08:53:32.196Z,19.47
2018-03-15T08:55:59.689Z,21.17
2018-03-15T08:58:27.141Z,22.00
2018-03-15T09:00:54.696Z,16.90
2018-03-15T09:03:22.111Z,20.93
2018-03-15T09:05:50.330Z,18.23
2018-03-15T09:08:17.783Z,24.03
2018-03-15T09:10:45.246Z,20.33
2018-03-15T09:13:12.680Z,23.00
2018-03-15T09:15:40.164Z,16.00
2018-03-15T09:18:07.601Z,20.57
2018-03-15T09:20:35.028Z,17.83
2018-03-15T09:23:03.239Z,17.00
2018-03-15T09:25:30.669Z,15.07
2018-03-15T09:27:58.954Z,19.87
2018-03-15T09:30:26.388Z,21.33
2018-03-15T09:32:54.613Z,15.43
2018-03-15T09:35:22.074Z,19.60
2018-03-15T09:37:49.525Z,16.63
2018-03-15T09:40:16.954Z,19.60
2018-03-15T09:42:44.451Z,18.73
2018-03-15T09:45:11.892Z,19.67
2018-03-15T09:47:39.327Z,20.00
2018-03-15T09:50:07.525Z,21.67
2018-03-15T09:52:34.984Z,17.67
2018-03-15T09:55:02.412Z,18.93
2018-03-15T09:57:30.601Z,20.43
2018-03-15T09:59:58.049Z,20.17
2018-03-15T10:02:25.631Z,21.97
2018-03-15T10:04:53.054Z,17.07
2018-03-15T10:07:21.260Z,18.57
2018-03-15T10:09:48.730Z,17.03
2018-03-15T10:12:16.156Z,18.80
2018-03-15T10:14:43.601Z,18.90
2018-03-15T10:17:11.911Z,18.53
2018-03-15T10:19:39.324Z,16.73
2018-03-15T10:22:07.541Z,19.17
2018-03-15T10:24:34.993Z,19.13
2018-03-15T10:27:02.464Z,16.67
2018-03-15T10:29:29.917Z,16.47
2018-03-15T10:31:57.385Z,18.83
2018-03-15T10:34:24.817Z,18.60
2018-03-15T10:36:52.301Z,19.27
2018-03-15T10:39:23.545Z,17.50
2018-03-15T10:41:50.985Z,17.07
2018-03-15T10:44:18.468Z,17.70
2018-03-15T10:46:45.901Z,16.93
2018-03-15T10:49:13.404Z,17.47
2018-03-15T10:51:40.844Z,20.03
2018-03-15T10:54:08.280Z,20.10
2018-03-15T10:56:35.708Z,17.63
2018-03-15T10:59:03.168Z,17.47
2018-03-15T11:01:36.368Z,19.23
2018-03-15T11:04:09.497Z,18.13
2018-03-15T11:06:40.915Z,18.90
2018-03-15T11:09:13.948Z,19.33
2018-03-15T11:11:41.378Z,20.97
2018-03-15T11:14:08.809Z,16.33
2018-03-15T11:16:36.261Z,16.47
2018-03-15T11:19:03.746Z,18.67
2018-03-15T11:21:31.184Z,17.90
2018-03-15T11:23:58.729Z,17.23
2018-03-15T11:26:26.105Z,18.10
2018-03-15T11:28:53.534Z,15.97
2018-03-15T11:31:21.850Z,18.50
2018-03-15T11:33:49.313Z,19.87
2018-03-15T11:36:16.748Z,18.30
2018-03-15T11:38:44.188Z,16.13
2018-03-15T11:41:11.625Z,17.70
2018-03-15T11:43:39.824Z,17.20
2018-03-15T11:46:07.272Z,15.90
2018-03-15T11:48:35.474Z,15.57
2018-03-15T11:51:02.953Z,18.13
2018-03-15T11:53:30.399Z,16.63
2018-03-15T11:55:57.850Z,17.73
2018-03-15T11:58:25.285Z,15.43
2018-03-15T12:00:52.772Z,16.23
2018-03-15T12:03:20.240Z,15.70
2018-03-15T12:05:47.670Z,14.50
2018-03-15T12:08:15.136Z,18.93
2018-03-15T12:10:42.593Z,18.70
2018-03-15T12:13:10.013Z,18.97
2018-03-15T12:15:38.227Z,16.20
2018-03-15T12:18:05.660Z,18.93
2018-03-15T12:20:33.092Z,24.57
2018-03-15T12:23:01.296Z,18.17
2018-03-15T12:25:28.777Z,19.53
2018-03-15T12:27:56.209Z,16.27
2018-03-15T12:30:23.665Z,18.13
2018-03-15T12:32:51.154Z,16.50
2018-03-15T12:35:18.585Z,19.37
2018-03-15T12:37:46.068Z,16.13
2018-03-15T12:40:13.499Z,18.63
2018-03-15T12:42:40.931Z,19.27
2018-03-15T12:45:09.149Z,18.00
2018-03-15T12:47:36.615Z,15.47
2018-03-15T12:50:04.157Z,17.80
2018-03-15T12:52:31.582Z,21.87
2018-03-15T12:54:59.774Z,18.73
2018-03-15T12:57:27.257Z,18.60
2018-03-15T12:59:54.685Z,20.53
2018-03-15T13:02:22.227Z,18.53
2018-03-15T13:04:49.682Z,17.60
2018-03-15T13:07:17.133Z,21.07
2018-03-15T13:09:44.604Z,17.23
2018-03-15T13:12:12.056Z,22.27
2018-03-15T13:14:39.609Z,21.77
2018-03-15T13:17:07.044Z,22.20
2018-03-15T13:19:34.473Z,21.17
2018-03-15T13:22:02.685Z,19.67
2018-03-15T13:24:30.113Z,18.50
2018-03-15T13:26:58.326Z,21.27
2018-03-15T13:29:25.793Z,18.97
2018-03-15T13:31:53.251Z,17.40
2018-03-15T13:34:20.724Z,19.97
2018-03-15T13:36:48.150Z,17.40
2018-03-15T13:39:15.611Z,18.97
2018-03-15T13:41:43.078Z,17.53
2018-03-15T13:44:10.526Z,19.13
2018-03-15T13:46:37.964Z,19.43
2018-03-15T13:49:05.400Z,17.10
2018-03-15T13:51:33.618Z,17.57
2018-03-15T13:54:01.073Z,18.23
2018-03-15T13:56:28.505Z,19.17
2018-03-15T13:58:55.982Z,15.83
2018-03-15T14:01:23.422Z,18.90
2018-03-15T14:03:51.639Z,20.43
2018-03-15T14:06:19.188Z,15.97
2018-03-15T14:08:46.616Z,19.83
2018-03-15T14:11:14.087Z,16.17
2018-03-15T14:13:41.554Z,17.80
2018-03-15T14:16:09.021Z,18.87
2018-03-15T14:18:36.465Z,20.97
2018-03-15T14:21:03.904Z,17.97
2018-03-15T14:23:31.369Z,18.40
2018-03-15T14:25:58.793Z,18.80
2018-03-15T14:28:27.005Z,22.77
2018-03-15T14:30:54.484Z,20.87
2018-03-15T14:33:22.045Z,19.07
2018-03-15T14:35:49.477Z,21.80
2018-03-15T14:38:16.925Z,18.80
2018-03-15T14:40:44.401Z,17.53
2018-03-15T14:43:11.884Z,24.07
2018-03-15T14:45:39.418Z,20.33
2018-03-15T14:48:06.866Z,17.40
2018-03-15T14:50:34.334Z,17.83
2018-03-15T14:53:01.790Z,17.13
2018-03-15T14:55:29.248Z,18.23
2018-03-15T14:57:56.726Z,17.07
2018-03-15T15:00:24.141Z,18.60
2018-03-15T15:02:52.352Z,19.63
2018-03-15T15:05:19.898Z,20.17
2018-03-15T15:07:47.342Z,24.53
2018-03-15T15:10:14.777Z,17.57
2018-03-15T15:12:42.282Z,18.23
2018-03-15T15:15:09.722Z,17.70
2018-03-15T15:17:37.173Z,18.27
2018-03-15T15:20:04.649Z,19.70
2018-03-15T15:22:32.142Z,19.20
2018-03-15T15:25:00.363Z,21.23
2018-03-15T15:27:27.901Z,19.27
2018-03-15T15:29:55.261Z,20.10
2018-03-15T15:32:22.695Z,18.17
2018-03-15T15:34:50.920Z,20.33
2018-03-15T15:37:18.389Z,20.80
2018-03-15T15:39:45.840Z,20.10
2018-03-15T15:42:13.393Z,16.77
2018-03-15T15:44:40.860Z,21.70
2018-03-15T15:47:08.317Z,17.40
2018-03-15T15:49:35.867Z,15.97
2018-03-15T15:52:03.299Z,18.77
2018-03-15T15:54:30.783Z,18.57
2018-03-15T15:56:58.228Z,16.37
2018-03-15T15:59:25.705Z,18.27
2018-03-15T16:01:53.130Z,20.23
2018-03-15T16:04:20.626Z,20.07
2018-03-15T16:06:48.046Z,18.30
2018-03-15T16:09:15.526Z,20.17
2018-03-15T16:11:42.970Z,18.63
2018-03-15T16:14:10.412Z,19.30
2018-03-15T16:16:37.886Z,22.47
2018-03-15T16:19:05.309Z,20.17
2018-03-15T16:21:33.576Z,20.87
2018-03-15T16:24:00.963Z,18.77
2018-03-15T16:26:28.401Z,21.60
2018-03-15T16:28:56.635Z,18.00
2018-03-15T16:31:24.065Z,17.90
2018-03-15T16:33:51.559Z,19.57
2018-03-15T16:36:19.090Z,19.87
2018-03-15T16:38:46.525Z,20.63
2018-03-15T16:41:13.965Z,19.67
2018-03-15T16:43:42.177Z,19.17
2018-03-15T16:46:09.680Z,19.43
2018-03-15T16:48:37.125Z,19.30
2018-03-15T16:51:04.572Z,20.23
2018-03-15T16:53:32.001Z,22.30
2018-03-15T16:55:59.460Z,18.73
2018-03-15T16:58:27.014Z,23.30
2018-03-15T17:00:54.480Z,20.80
2018-03-15T17:03:21.928Z,18.50
2018-03-15T17:05:49.399Z,22.87
2018-03-15T17:08:16.865Z,19.57
2018-03-15T17:10:44.314Z,22.60
2018-03-15T17:13:11.784Z,20.70
2018-03-15T17:15:39.228Z,23.87
2018-03-15T17:18:06.700Z,20.17
2018-03-15T17:20:34.166Z,23.73
2018-03-15T17:23:01.638Z,20.07
2018-03-15T17:25:29.154Z,22.67
2018-03-15T17:27:56.643Z,20.17
2018-03-15T17:30:24.177Z,19.90
2018-03-15T17:32:52.644Z,24.53
2018-03-15T17:35:20.066Z,21.23
2018-03-15T17:37:48.271Z,23.17
2018-03-15T17:40:15.704Z,19.20
2018-03-15T17:42:43.948Z,18.93
2018-03-15T17:45:11.364Z,20.67
2018-03-15T17:47:38.805Z,21.53
2018-03-15T17:50:06.231Z,21.67
2018-03-15T17:52:34.488Z,20.10
2018-03-15T17:55:01.925Z,24.50
2018-03-15T17:57:29.376Z,21.57
2018-03-15T17:59:56.821Z,24.57
2018-03-15T18:02:24.260Z,22.30
2018-03-15T18:04:51.764Z,20.90
2018-03-15T18:07:19.200Z,20.57
2018-03-15T18:09:46.654Z,22.43
2018-03-15T18:12:14.093Z,21.70
2018-03-15T18:14:41.581Z,20.87
2018-03-15T18:17:09.028Z,21.17
2018-03-15T18:19:36.464Z,24.07
2018-03-15T18:22:03.922Z,21.67
2018-03-15T18:24:32.120Z,22.60
2018-03-15T18:26:59.569Z,23.03
2018-03-15T18:29:27.001Z,23.43
2018-03-15T18:31:54.488Z,23.30
2018-03-15T18:34:21.925Z,21.60
2018-03-15T18:36:50.164Z,20.53
2018-03-15T18:39:17.625Z,25.03
2018-03-15T18:41:45.057Z,21.17
2018-03-15T18:44:12.520Z,23.90
2018-03-15T18:46:39.969Z,21.13
2018-03-15T18:49:07.413Z,23.87
2018-03-15T18:51:34.883Z,21.67
2018-03-15T18:54:02.347Z,24.73
2018-03-15T18:56:29.801Z,23.83
2018-03-15T18:58:57.277Z,25.00
2018-03-15T19:01:24.665Z,22.27
2018-03-15T19:03:52.935Z,23.10
2018-03-15T19:06:20.352Z,23.07
2018-03-15T19:08:47.807Z,23.20
2018-03-15T19:11:15.237Z,23.13
2018-03-15T19:13:42.668Z,24.70
2018-03-15T19:16:10.892Z,24.77
2018-03-15T19:18:38.315Z,20.83
2018-03-15T19:21:06.542Z,24.27
2018-03-15T19:23:34.100Z,25.07
2018-03-15T19:26:01.548Z,24.03
2018-03-15T19:28:28.982Z,23.13
2018-03-15T19:30:56.448Z,25.60
2018-03-15T19:33:23.927Z,22.37
2018-03-15T19:35:51.353Z,25.80
2018-03-15T19:38:18.801Z,24.13
2018-03-15T19:40:46.240Z,25.00
2018-03-15T19:43:14.466Z,26.47
2018-03-15T19:45:41.905Z,26.23
2018-03-15T19:48:09.329Z,28.53
2018-03-15T19:50:37.532Z,27.40
2018-03-15T19:53:04.975Z,26.20
2018-03-15T19:55:32.405Z,25.37
2018-03-15T19:57:59.912Z,24.33
2018-03-15T20:00:27.337Z,28.13
2018-03-15T20:02:55.556Z,28.30
2018-03-15T20:05:22.997Z,30.37
2018-03-15T20:07:51.270Z,27.23
2018-03-15T20:10:18.671Z,28.20
2018-03-15T20:12:46.167Z,28.97
2018-03-15T20:15:13.555Z,35.47
2018-03-15T20:17:40.984Z,31.13
2018-03-15T20:20:09.189Z,34.30
2018-03-15T20:22:42.333Z,33.27
2018-03-15T20:25:09.778Z,37.07
2018-03-15T20:27:42.978Z,39.17
2018-03-15T20:30:10.411Z,31.87
2018-03-15T20:32:43.557Z,35.43
2018-03-15T20:35:11.773Z,34.83
2018-03-15T20:37:39.215Z,35.33
2018-03-15T20:40:12.465Z,33.87
2018-03-15T20:42:40.857Z,35.50
2018-03-15T20:45:15.937Z,37.77
2018-03-15T20:47:49.101Z,34.87
2018-03-15T20:50:17.302Z,41.63
2018-03-15T20:52:44.733Z,41.67
2018-03-15T20:55:12.934Z,38.03
2018-03-15T20:57:40.386Z,36.23
2018-03-15T21:00:07.821Z,41.37
2018-03-15T21:02:36.038Z,41.73
2018-03-15T21:05:03.473Z,42.37
2018-03-15T21:07:30.913Z,38.43
2018-03-15T21:09:58.403Z,40.97
2018-03-15T21:12:25.870Z,40.80
2018-03-15T21:14:53.297Z,41.60
2018-03-15T21:17:20.721Z,42.53
2018-03-15T21:19:48.953Z,42.00
2018-03-15T21:22:16.413Z,43.53
2018-03-15T21:24:43.854Z,44.60
2018-03-15T21:27:12.149Z,42.53
2018-03-15T21:29:39.550Z,47.50
2018-03-15T21:32:07.013Z,44.73
2018-03-15T21:34:34.436Z,50.23
2018-03-15T21:37:01.873Z,49.97
2018-03-15T21:39:29.398Z,48.03
2018-03-15T21:41:56.899Z,52.70
2018-03-15T21:44:25.141Z,51.17
2018-03-15T21:46:52.571Z,47.77
2018-03-15T21:49:20.788Z,49.43
2018-03-15T21:51:48.279Z,48.80
2018-03-15T21:54:15.699Z,50.43
2018-03-15T21:56:43.141Z,49.60
2018-03-15T21:59:10.571Z,51.60
2018-03-15T22:01:38.885Z,53.60
2018-03-15T22:04:06.306Z,53.60
2018-03-15T22:06:34.515Z,52.03
2018-03-15T22:09:01.992Z,53.07
2018-03-15T22:11:29.443Z,61.53
2018-03-15T22:13:56.910Z,56.03
2018-03-15T22:16:24.358Z,57.47
2018-03-15T22:18:51.903Z,58.60
2018-03-15T22:21:19.381Z,52.63
2018-03-15T22:23:46.818Z,55.50
2018-03-15T22:26:15.288Z,57.43
2018-03-15T22:28:42.722Z,58.57
2018-03-15T22:31:11.204Z,59.57
2018-03-15T22:33:39.398Z,56.23
2018-03-15T22:36:06.841Z,56.03
2018-03-15T22:38:35.082Z,59.57
2018-03-15T22:41:02.531Z,59.13
2018-03-15T22:43:30.058Z,62.73
2018-03-15T22:45:57.510Z,55.83
2018-03-15T22:48:24.995Z,58.77
2018-03-15T22:50:52.536Z,61.10
2018-03-15T22:53:20.004Z,57.93
2018-03-15T22:55:47.451Z,61.97
2018-03-15T22:58:14.934Z,62.80
2018-03-15T23:00:42.421Z,66.63
2018-03-15T23:03:10.625Z,60.43
2018-03-15T23:05:38.105Z,70.93
2018-03-15T23:08:05.586Z,67.37
2018-03-15T23:10:33.128Z,71.90
2018-03-15T23:13:00.569Z,69.27
2018-03-15T23:15:28.004Z,69.17
2018-03-15T23:17:55.496Z,72.83
2018-03-15T23:20:22.943Z,73.77
2018-03-15T23:22:50.376Z,71.13
2018-03-15T23:25:18.592Z,70.30
2018-03-15T23:27:46.040Z,69.93
2018-03-15T23:30:13.511Z,75.37
2018-03-15T23:32:40.955Z,79.07
2018-03-15T23:35:08.405Z,78.87
2018-03-15T23:37:35.839Z,77.03
2018-03-15T23:40:09.326Z,75.57
2018-03-15T23:42:37.534Z,79.83
2018-03-15T23:45:04.988Z,76.40
2018-03-15T23:47:32.421Z,76.23
2018-03-15T23:49:59.926Z,78.63
2018-03-15T23:52:27.374Z,77.57
2018-03-15T23:54:54.853Z,70.70
2018-03-15T23:57:22.290Z,79.57
2018-03-15T23:59:49.747Z,83.23
